Time;durP1;ratioP1;P1;durP2;ratioP2;P2;SDS_P1;SDS_P2;PMS_P1;PMS_P2;Temp;Humidity;BMP_temperature;BMP_pressure;BME280_temperature;BME280_humidity;BME280_pressure;Samples;Min_cycle;Max_cycle;Signal;HPM_P1;HPM_P2
2021/05/22 00:01:11;;;;;;;26.13;24.02;;;;;;;9.63;100.00;101372.09;5034548;28;20049;-89
2021/05/22 00:03:37;;;;;;;24.52;22.42;;;;;;;9.62;100.00;101374.91;5033839;28;20068;-89
2021/05/22 00:06:04;;;;;;;25.70;22.92;;;;;;;9.45;100.00;101368.16;5034155;28;20103;-90
2021/05/22 00:08:31;;;;;;;23.63;21.48;;;;;;;9.54;100.00;101373.19;5034630;28;20052;-89
2021/05/22 00:10:58;;;;;;;25.33;23.08;;;;;;;9.23;100.00;101364.56;5034434;28;20053;-90
2021/05/22 00:13:25;;;;;;;24.88;22.80;;;;;;;9.35;100.00;101356.00;5034669;28;20049;-89
2021/05/22 00:15:51;;;;;;;22.52;20.80;;;;;;;9.42;100.00;101356.09;5034745;28;20049;-89
2021/05/22 00:18:17;;;;;;;23.33;21.25;;;;;;;9.33;100.00;101358.00;5034480;28;20057;-90
2021/05/22 00:20:44;;;;;;;23.42;21.35;;;;;;;9.39;100.00;101359.13;5034275;28;20052;-89
2021/05/22 00:23:11;;;;;;;23.02;21.23;;;;;;;9.23;100.00;101369.88;5034423;28;20100;-90
2021/05/22 00:25:38;;;;;;;23.08;21.38;;;;;;;9.08;100.00;101376.00;5034401;28;20049;-89
2021/05/22 00:28:05;;;;;;;23.27;21.40;;;;;;;9.27;100.00;101368.53;5034291;28;20107;-89
2021/05/22 00:30:31;;;;;;;21.92;20.42;;;;;;;9.24;100.00;101371.53;5034479;28;20053;-88
2021/05/22 00:32:57;;;;;;;24.17;21.10;;;;;;;9.24;100.00;101372.34;5034188;28;20049;-90
2021/05/22 00:35:24;;;;;;;23.70;21.77;;;;;;;9.24;100.00;101369.69;5034071;28;20049;-89
2021/05/22 00:37:50;;;;;;;22.92;21.23;;;;;;;9.28;100.00;101368.31;5034345;28;20050;-89
2021/05/22 00:40:17;;;;;;;24.23;21.65;;;;;;;9.18;100.00;101373.91;5034066;28;20049;-89
2021/05/22 00:42:44;;;;;;;23.48;21.50;;;;;;;9.01;100.00;101367.09;5033909;28;20049;-89
2021/05/22 00:45:17;;;;;;;25.05;23.10;;;;;;;9.11;100.00;101374.81;5034203;28;20514;-89
2021/05/22 00:47:46;;;;;;;23.38;21.60;;;;;;;9.03;100.00;101381.00;5033819;28;20049;-90
2021/05/22 00:50:16;;;;;;;23.52;21.73;;;;;;;8.79;100.00;101373.25;5033722;28;20502;-89
2021/05/22 00:52:42;;;;;;;22.80;21.10;;;;;;;8.85;100.00;101385.78;5033768;28;20060;-89
2021/05/22 00:55:09;;;;;;;25.23;23.33;;;;;;;8.71;100.00;101384.72;5033930;28;20119;-90
2021/05/22 00:57:39;;;;;;;24.80;22.65;;;;;;;8.89;100.00;101384.41;5034054;28;20052;-89
2021/05/22 01:00:10;;;;;;;25.05;23.02;;;;;;;8.83;100.00;101382.50;5033155;28;20045;-90
2021/05/22 01:02:37;;;;;;;25.83;23.10;;;;;;;8.78;100.00;101376.91;5033454;28;20051;-90
2021/05/22 01:05:05;;;;;;;24.17;22.13;;;;;;;8.82;100.00;101375.56;5033330;28;20085;-90
2021/05/22 01:07:31;;;;;;;22.33;20.63;;;;;;;8.88;100.00;101374.84;5033494;28;20053;-89
2021/05/22 01:09:59;;;;;;;21.75;20.05;;;;;;;8.88;100.00;101380.13;5033307;28;20045;-89
2021/05/22 01:12:31;;;;;;;21.80;20.10;;;;;;;8.91;100.00;101374.47;5033603;28;20073;-90
2021/05/22 01:15:05;;;;;;;23.45;21.38;;;;;;;8.97;100.00;101371.13;5033480;28;20083;-89
2021/05/22 01:17:35;;;;;;;25.88;23.63;;;;;;;9.02;100.00;101373.25;5033205;28;20141;-90
2021/05/22 01:20:12;;;;;;;25.20;23.10;;;;;;;8.87;100.00;101376.66;5033133;28;20056;-89
2021/05/22 01:22:44;;;;;;;25.73;23.38;;;;;;;8.84;100.00;101376.22;5033072;28;20057;-90
2021/05/22 01:25:23;;;;;;;32.30;29.00;;;;;;;8.65;100.00;101375.69;5032904;28;20099;-88
2021/05/22 01:27:50;;;;;;;29.77;26.73;;;;;;;8.66;100.00;101372.03;5032718;28;20370;-89
2021/05/22 01:30:17;;;;;;;30.05;27.42;;;;;;;8.69;100.00;101376.97;5032835;28;20072;-89
2021/05/22 01:32:44;;;;;;;29.77;27.23;;;;;;;8.66;100.00;101382.63;5032710;28;20061;-89
2021/05/22 01:35:11;;;;;;;29.88;27.13;;;;;;;8.63;100.00;101382.16;5032918;28;20045;-89
2021/05/22 01:37:38;;;;;;;29.90;27.05;;;;;;;8.57;100.00;101388.97;5033060;28;20064;-89
2021/05/22 01:40:06;;;;;;;28.23;25.60;;;;;;;8.56;100.00;101391.78;5032833;28;20049;-89
2021/05/22 01:42:33;;;;;;;26.90;24.77;;;;;;;8.48;100.00;101380.25;5033081;28;20049;-89
2021/05/22 01:45:03;;;;;;;25.92;23.48;;;;;;;8.60;100.00;101385.97;5032693;28;20494;-89
2021/05/22 01:47:31;;;;;;;25.25;23.17;;;;;;;8.64;100.00;101378.50;5032925;28;20057;-89
2021/05/22 01:50:00;;;;;;;25.23;23.00;;;;;;;8.64;100.00;101376.66;5033281;28;20041;-89
2021/05/22 01:52:27;;;;;;;24.48;22.13;;;;;;;8.79;100.00;101384.66;5032899;28;20046;-88
2021/05/22 01:54:54;;;;;;;23.83;21.88;;;;;;;8.87;100.00;101381.97;5032880;28;20057;-88
2021/05/22 01:57:20;;;;;;;25.08;23.08;;;;;;;8.88;100.00;101382.78;5032521;28;20052;-89
2021/05/22 01:59:48;;;;;;;24.98;22.98;;;;;;;8.91;100.00;101382.44;5032744;28;20045;-90
2021/05/22 02:02:14;;;;;;;24.67;22.48;;;;;;;8.65;100.00;101377.50;5048396;22;20468;-79
2021/05/22 02:04:45;;;;;;;23.60;21.73;;;;;;;8.65;100.00;101373.03;5033704;28;20049;-78
2021/05/22 02:07:17;;;;;;;23.50;21.52;;;;;;;8.48;100.00;101369.69;5033643;28;20049;-77
2021/05/22 02:09:44;;;;;;;22.93;21.23;;;;;;;8.58;100.00;101369.44;5033768;28;20056;-81
2021/05/22 02:12:12;;;;;;;23.55;21.75;;;;;;;8.59;100.00;101371.06;5033393;28;20053;-77
2021/05/22 02:14:41;;;;;;;24.52;22.73;;;;;;;8.52;100.00;101377.25;5033405;28;20060;-78
2021/05/22 02:17:12;;;;;;;23.67;21.80;;;;;;;8.44;100.00;101371.03;5033392;28;20474;-78
2021/05/22 02:19:39;;;;;;;28.80;22.13;;;;;;;8.45;100.00;101361.28;5033322;28;20132;-80
2021/05/22 02:22:11;;;;;;;23.60;21.73;;;;;;;8.27;100.00;101362.34;5033255;28;20477;-81
2021/05/22 02:24:38;;;;;;;22.65;20.95;;;;;;;8.25;100.00;101356.38;5033273;28;20053;-77
2021/05/22 02:27:05;;;;;;;23.67;21.52;;;;;;;8.12;100.00;101368.56;5033475;28;20116;-81
2021/05/22 02:29:36;;;;;;;23.20;21.33;;;;;;;8.18;100.00;101362.56;5033504;28;20045;-77
2021/05/22 02:32:04;;;;;;;24.15;21.98;;;;;;;8.15;100.00;101363.72;5033674;28;20084;-80
2021/05/22 02:34:35;;;;;;;24.90;22.90;;;;;;;8.18;100.00;101362.56;5033468;28;20049;-78
2021/05/22 02:37:03;;;;;;;24.02;21.95;;;;;;;8.33;100.00;101368.75;5033518;28;20049;-78
2021/05/22 02:39:30;;;;;;;22.15;20.55;;;;;;;8.11;100.00;101378.31;5033331;28;20052;-77
2021/05/22 02:42:00;;;;;;;21.90;20.05;;;;;;;8.16;100.00;101377.78;5036061;28;20049;-81
2021/05/22 02:44:29;;;;;;;23.13;21.35;;;;;;;8.00;100.00;101370.75;5037392;28;20054;-80
2021/05/22 02:46:56;;;;;;;25.27;23.30;;;;;;;8.06;100.00;101377.19;5037324;28;20137;-79
2021/05/22 02:49:26;;;;;;;22.75;21.00;;;;;;;8.01;100.00;101375.84;5037018;28;20409;-79
2021/05/22 02:51:56;;;;;;;22.70;21.10;;;;;;;8.08;100.00;101377.81;5036993;28;20103;-77
2021/05/22 02:54:26;;;;;;;23.52;21.92;;;;;;;8.14;100.00;101370.03;5036977;28;20050;-79
2021/05/22 02:56:56;;;;;;;22.58;20.90;;;;;;;8.03;100.00;101379.16;5037180;28;20049;-79
2021/05/22 02:59:23;;;;;;;23.55;21.90;;;;;;;7.98;100.00;101378.84;5036766;28;20076;-81
2021/05/22 03:01:49;;;;;;;24.00;22.10;;;;;;;7.98;100.00;101392.06;5036665;28;20061;-77
2021/05/22 03:04:17;;;;;;;23.35;21.50;;;;;;;8.01;100.00;101391.72;5070850;22;20047;-89
2021/05/22 03:06:43;;;;;;;23.65;21.77;;;;;;;8.01;100.00;101409.44;5096112;28;20094;-89
2021/05/22 03:09:11;;;;;;;24.42;22.63;;;;;;;7.82;100.00;101402.75;5094453;28;20058;-90
2021/05/22 03:11:37;;;;;;;22.65;20.63;;;;;;;7.71;100.00;101411.03;5095790;28;20105;-89
2021/05/22 03:14:04;;;;;;;34.30;21.65;;;;;;;7.88;100.00;101402.06;5096031;28;20478;-89
2021/05/22 03:16:30;;;;;;;22.17;20.58;;;;;;;8.08;100.00;101413.06;5095972;28;20052;-90
2021/05/22 03:18:57;;;;;;;22.27;20.67;;;;;;;8.22;100.00;101407.00;5095938;28;20444;-89
2021/05/22 03:21:25;;;;;;;21.05;19.65;;;;;;;8.33;100.00;101408.47;5095943;28;20040;-89
2021/05/22 03:23:52;;;;;;;21.77;20.17;;;;;;;8.42;100.00;101401.31;5095893;28;20052;-89
2021/05/22 03:26:19;;;;;;;21.67;19.85;;;;;;;8.41;100.00;101400.50;5095481;28;20497;-89
2021/05/22 03:28:45;;;;;;;21.40;19.77;;;;;;;8.50;100.00;101409.19;5095592;28;20048;-90
2021/05/22 03:31:12;;;;;;;21.95;20.10;;;;;;;8.65;100.00;101403.97;5095471;28;20055;-90
2021/05/22 03:33:38;;;;;;;20.63;19.23;;;;;;;8.88;100.00;101417.22;5095478;28;20052;-89
2021/05/22 03:36:05;;;;;;;20.85;19.30;;;;;;;9.03;100.00;101406.69;5095713;28;20052;-89
2021/05/22 03:38:32;;;;;;;21.40;19.75;;;;;;;9.07;100.00;101416.72;5095279;28;20040;-89
2021/05/22 03:40:58;;;;;;;21.30;19.70;;;;;;;9.26;100.00;101409.25;5095542;28;20448;-89
2021/05/22 03:43:25;;;;;;;20.10;18.90;;;;;;;9.34;100.00;101409.19;5095186;28;20067;-89
2021/05/22 03:45:52;;;;;;;20.58;19.10;;;;;;;9.36;100.00;101415.97;5095559;28;20040;-89
2021/05/22 03:48:18;;;;;;;19.33;18.13;;;;;;;9.47;100.00;101413.88;5095478;28;20051;-87
2021/05/22 03:50:45;;;;;;;21.42;19.52;;;;;;;9.55;100.00;101419.09;5095203;28;20051;-87
2021/05/22 03:53:11;;;;;;;20.42;19.00;;;;;;;9.70;100.00;101419.09;5095048;28;20048;-88
2021/05/22 03:55:38;;;;;;;20.83;19.23;;;;;;;9.88;100.00;101416.91;5095063;28;20554;-87
2021/05/22 03:58:04;;;;;;;20.10;18.70;;;;;;;9.86;100.00;101417.09;5095190;28;20052;-88
2021/05/22 04:00:31;;;;;;;24.08;22.58;;;;;;;10.05;100.00;101420.19;5094989;28;20048;-87
2021/05/22 04:02:58;;;;;;;22.83;21.42;;;;;;;10.15;100.00;101419.91;5095072;28;20052;-87
2021/05/22 04:05:24;;;;;;;20.63;19.17;;;;;;;10.20;100.00;101420.19;5094684;28;20067;-88
2021/05/22 04:07:50;;;;;;;22.75;21.02;;;;;;;10.27;100.00;101423.75;5094728;28;20105;-90
2021/05/22 04:10:17;;;;;;;19.77;18.58;;;;;;;10.28;100.00;101418.22;5094729;28;20478;-90
2021/05/22 04:12:43;;;;;;;20.50;19.10;;;;;;;10.50;100.00;101411.16;5094704;28;20064;-87
2021/05/22 04:15:11;;;;;;;18.27;17.17;;;;;;;10.58;100.00;101404.06;5094895;28;20048;-87
2021/05/22 04:17:38;;;;;;;19.67;18.15;;;;;;;10.61;100.00;101406.34;5094740;28;20109;-88
2021/05/22 04:20:06;;;;;;;19.77;18.48;;;;;;;10.78;100.00;101411.22;5093997;28;20048;-86
2021/05/22 04:22:32;;;;;;;20.08;18.77;;;;;;;10.77;100.00;101412.25;5094037;28;20048;-88
2021/05/22 04:24:59;;;;;;;19.55;18.33;;;;;;;10.92;100.00;101411.31;5094440;28;20048;-87
2021/05/22 04:27:25;;;;;;;19.85;18.65;;;;;;;11.04;100.00;101419.59;5094501;28;20125;-87
2021/05/22 04:29:51;;;;;;;19.75;18.45;;;;;;;10.99;100.00;101422.84;5094536;28;20059;-88
2021/05/22 04:32:18;;;;;;;21.52;20.02;;;;;;;11.10;100.00;101421.50;5094487;28;20113;-87
2021/05/22 04:34:45;;;;;;;20.83;19.45;;;;;;;11.12;100.00;101425.59;5094399;28;20048;-88
2021/05/22 04:37:11;;;;;;;20.58;19.38;;;;;;;11.23;100.00;101437.56;5094400;28;20059;-87
2021/05/22 04:39:37;;;;;;;21.38;19.85;;;;;;;11.42;100.00;101436.88;5094291;28;20047;-87
2021/05/22 04:42:04;;;;;;;22.95;21.33;;;;;;;11.60;100.00;101441.72;5094069;28;20048;-87
2021/05/22 04:44:31;;;;;;;21.25;19.75;;;;;;;11.78;100.00;101435.06;5094331;28;20047;-87
2021/05/22 04:46:57;;;;;;;21.20;19.60;;;;;;;11.87;100.00;101437.41;5093980;28;20048;-89
2021/05/22 04:49:27;;;;;;;21.90;20.60;;;;;;;12.02;100.00;101433.78;5093913;28;20040;-88
2021/05/22 04:51:55;;;;;;;21.95;20.58;;;;;;;12.34;100.00;101435.78;5094047;28;20048;-87
2021/05/22 04:54:21;;;;;;;23.70;22.00;;;;;;;12.32;100.00;101447.66;5093986;28;20097;-88
2021/05/22 04:56:47;;;;;;;24.08;22.33;;;;;;;12.56;100.00;101436.44;5094052;28;20055;-88
2021/05/22 04:59:14;;;;;;;22.55;20.95;;;;;;;12.58;100.00;101444.22;5093863;28;20051;-87
2021/05/22 05:01:40;;;;;;;21.58;20.38;;;;;;;12.43;100.00;101444.38;5093905;28;20058;-87
2021/05/22 05:04:07;;;;;;;22.00;20.63;;;;;;;12.58;100.00;101460.22;5092538;28;20097;-87
2021/05/22 05:06:33;;;;;;;22.60;21.00;;;;;;;12.78;100.00;101453.09;5093583;28;20056;-87
2021/05/22 05:09:01;;;;;;;20.73;19.40;;;;;;;12.90;100.00;101455.97;5093824;28;20082;-88
2021/05/22 05:11:27;;;;;;;22.60;20.95;;;;;;;12.94;100.00;101459.88;5093660;28;20044;-88
2021/05/22 05:13:54;;;;;;;21.15;19.65;;;;;;;12.93;100.00;101463.56;5093624;28;20433;-87
2021/05/22 05:16:20;;;;;;;21.92;20.20;;;;;;;12.77;100.00;101454.13;5093635;28;20048;-87
2021/05/22 05:18:46;;;;;;;22.20;20.85;;;;;;;12.88;100.00;101454.53;5093637;28;20044;-86
2021/05/22 05:21:12;;;;;;;20.05;18.85;;;;;;;13.00;100.00;101453.72;5093592;28;20397;-88
2021/05/22 05:23:39;;;;;;;21.10;19.90;;;;;;;13.11;100.00;101456.81;5093349;28;20078;-88
2021/05/22 05:26:07;;;;;;;21.85;20.55;;;;;;;13.30;100.00;101453.38;5093252;28;20056;-89
2021/05/22 05:28:33;;;;;;;21.67;20.38;;;;;;;13.34;100.00;101451.91;5093552;28;20044;-88
2021/05/22 05:31:00;;;;;;;22.95;21.55;;;;;;;13.41;100.00;101451.94;5093488;28;20472;-88
2021/05/22 05:33:27;;;;;;;22.95;21.42;;;;;;;13.56;100.00;101447.19;5093367;28;20048;-90
2021/05/22 05:35:53;;;;;;;25.60;23.90;;;;;;;13.64;100.00;101449.63;5093375;28;20048;-88
2021/05/22 05:38:20;;;;;;;24.08;22.65;;;;;;;13.67;100.00;101451.06;5093006;28;20051;-88
2021/05/22 05:40:46;;;;;;;22.75;21.10;;;;;;;13.80;100.00;101448.38;5093154;28;20082;-90
2021/05/22 05:43:17;;;;;;;23.17;21.83;;;;;;;13.95;100.00;101458.81;5093211;28;20055;-90
2021/05/22 05:45:44;;;;;;;24.52;22.77;;;;;;;14.04;100.00;101468.22;5092955;28;20043;-89
2021/05/22 05:48:10;;;;;;;21.90;20.50;;;;;;;14.08;100.00;101458.75;5093238;28;20048;-87
2021/05/22 05:50:37;;;;;;;21.20;20.00;;;;;;;14.21;100.00;101469.38;5093082;28;20070;-89
2021/05/22 05:53:03;;;;;;;23.58;22.25;;;;;;;14.27;100.00;101474.91;5092924;28;20040;-88
2021/05/22 05:55:30;;;;;;;24.95;22.88;;;;;;;14.35;100.00;101470.16;5092811;28;20047;-88
2021/05/22 05:57:57;;;;;;;24.27;22.60;;;;;;;14.39;100.00;101468.69;5092904;28;20094;-89
2021/05/22 06:00:25;;;;;;;24.95;23.35;;;;;;;14.50;100.00;101472.56;5092735;28;20044;-89
2021/05/22 06:02:51;;;;;;;24.02;22.30;;;;;;;14.72;100.00;101470.41;5092901;28;20120;-89
2021/05/22 06:05:18;;;;;;;25.92;24.33;;;;;;;14.77;100.00;101470.59;5090951;28;20116;-89
2021/05/22 06:07:45;;;;;;;22.77;21.38;;;;;;;15.08;100.00;101458.22;5092779;28;20048;-89
2021/05/22 06:10:13;;;;;;;25.38;23.73;;;;;;;15.03;100.00;101461.56;5092633;28;20044;-88
2021/05/22 06:12:40;;;;;;;23.70;22.25;;;;;;;15.11;100.00;101457.81;5091487;28;20070;-89
2021/05/22 06:15:20;;;;;;;25.00;23.40;;;;;;;15.26;100.00;101460.16;5092528;28;20091;-89
2021/05/22 06:17:48;;;;;;;25.70;23.80;;;;;;;15.49;100.00;101456.84;5092536;28;20552;-89
2021/05/22 06:20:14;;;;;;;26.08;24.25;;;;;;;15.57;100.00;101451.22;5092370;28;20040;-90
2021/05/22 06:22:41;;;;;;;26.73;24.83;;;;;;;15.79;100.00;101451.63;5092576;28;20044;-88
2021/05/22 06:25:09;;;;;;;25.30;23.80;;;;;;;15.83;100.00;101444.00;5092593;28;20044;-89
2021/05/22 06:27:35;;;;;;;26.35;24.73;;;;;;;16.06;100.00;101451.34;5092501;28;20043;-89
2021/05/22 06:30:01;;;;;;;28.40;26.55;;;;;;;16.26;100.00;101441.19;5092375;28;20052;-89
2021/05/22 06:32:28;;;;;;;29.42;27.23;;;;;;;16.62;100.00;101442.16;5092349;28;20040;-88
2021/05/22 06:34:55;;;;;;;29.95;28.13;;;;;;;16.67;100.00;101435.06;5092202;28;20056;-90
2021/05/22 06:37:23;;;;;;;30.85;28.45;;;;;;;16.75;100.00;101427.72;5092618;28;20044;-88
2021/05/22 06:39:49;;;;;;;28.23;26.33;;;;;;;16.89;100.00;101427.34;5092262;28;20051;-88
2021/05/22 06:42:15;;;;;;;32.42;30.52;;;;;;;16.94;100.00;101416.72;5092552;28;20425;-89
2021/05/22 06:44:47;;;;;;;26.88;25.17;;;;;;;17.05;100.00;101409.72;5092477;28;20056;-90
2021/05/22 06:47:13;;;;;;;26.55;24.73;;;;;;;17.32;100.00;101410.09;5092817;28;20135;-86
2021/05/22 06:49:39;;;;;;;27.98;26.33;;;;;;;17.40;100.00;101419.69;5092184;28;20040;-90
2021/05/22 06:52:07;;;;;;;28.00;26.40;;;;;;;17.49;100.00;101412.91;5092381;28;20125;-90
2021/05/22 06:54:34;;;;;;;26.73;24.98;;;;;;;17.54;100.00;101410.31;5092351;28;20051;-87
2021/05/22 06:57:00;;;;;;;25.70;24.30;;;;;;;17.71;100.00;101396.97;5092101;28;20048;-89
2021/05/22 06:59:27;;;;;;;24.73;23.42;;;;;;;17.88;100.00;101399.75;5092397;28;20101;-90
2021/05/22 07:01:53;;;;;;;25.35;23.95;;;;;;;17.98;100.00;101388.41;5091991;28;20040;-89
2021/05/22 07:04:19;;;;;;;26.75;25.35;;;;;;;18.02;100.00;101397.63;5091757;28;20059;-89
2021/05/22 07:06:46;;;;;;;27.50;25.92;;;;;;;18.29;100.00;101404.06;5092266;28;20101;-88
2021/05/22 07:09:13;;;;;;;25.33;23.92;;;;;;;18.28;100.00;101402.44;5092163;28;20051;-88
2021/05/22 07:11:41;;;;;;;25.83;24.23;;;;;;;18.58;100.00;101395.97;5092017;28;20052;-88
2021/05/22 07:14:07;;;;;;;24.77;23.27;;;;;;;18.60;100.00;101393.84;5092238;28;20052;-87
2021/05/22 07:16:34;;;;;;;24.92;23.48;;;;;;;18.70;100.00;101395.91;5092276;28;20055;-88
2021/05/22 07:19:00;;;;;;;25.70;24.20;;;;;;;18.88;100.00;101402.94;5092156;28;20040;-88
2021/05/22 07:21:27;;;;;;;25.65;24.25;;;;;;;18.92;100.00;101396.03;5091821;28;20086;-90
2021/05/22 07:23:53;;;;;;;24.27;22.77;;;;;;;19.21;100.00;101394.03;5091302;28;20078;-87
2021/05/22 07:26:20;;;;;;;25.25;23.95;;;;;;;19.23;100.00;101389.22;5091533;28;20055;-88
2021/05/22 07:28:47;;;;;;;25.73;24.33;;;;;;;19.27;100.00;101395.75;5095287;28;20567;-90
2021/05/22 07:31:13;;;;;;;24.83;23.63;;;;;;;19.40;100.00;101392.72;5095734;28;20052;-88
2021/05/22 07:33:41;;;;;;;24.40;23.10;;;;;;;19.38;100.00;101396.72;5095615;28;20470;-87
2021/05/22 07:36:09;;;;;;;25.25;23.85;;;;;;;19.47;100.00;101386.34;5095686;28;20047;-88
2021/05/22 07:38:36;;;;;;;26.10;24.70;;;;;;;19.58;100.00;101397.00;5095717;28;20052;-87
2021/05/22 07:41:02;;;;;;;24.63;23.42;;;;;;;19.63;100.00;101398.94;5095259;28;20101;-90
2021/05/22 07:43:29;;;;;;;24.17;22.95;;;;;;;20.03;100.00;101387.03;5095347;28;20139;-90
2021/05/22 07:45:57;;;;;;;25.48;24.02;;;;;;;20.04;100.00;101392.19;5095340;28;20055;-89
2021/05/22 07:48:24;;;;;;;26.58;25.00;;;;;;;20.24;100.00;101385.38;5095138;28;20054;-90
2021/05/22 07:50:52;;;;;;;26.45;25.05;;;;;;;20.46;100.00;101388.84;5094975;28;20083;-90
2021/05/22 07:53:19;;;;;;;25.33;23.83;;;;;;;20.50;100.00;101379.16;5095128;28;20089;-88
2021/05/22 07:55:45;;;;;;;25.02;23.73;;;;;;;20.60;100.00;101378.47;5095276;28;20113;-90
2021/05/22 07:58:11;;;;;;;25.67;24.27;;;;;;;20.22;100.00;101382.13;5095238;28;20044;-87
2021/05/22 08:00:39;;;;;;;27.55;26.05;;;;;;;19.90;100.00;101378.28;5094854;28;20052;-88
2021/05/22 08:03:05;;;;;;;26.35;24.95;;;;;;;20.10;100.00;101366.09;5095036;28;20056;-89
2021/05/22 08:05:31;;;;;;;27.83;26.08;;;;;;;20.23;100.00;101370.28;5095188;28;20052;-89
2021/05/22 08:07:57;;;;;;;26.80;25.30;;;;;;;19.99;100.00;101373.25;5094917;28;20051;-90
2021/05/22 08:10:24;;;;;;;25.58;23.98;;;;;;;20.24;100.00;101371.88;5095087;28;20055;-89
2021/05/22 08:12:50;;;;;;;28.08;26.35;;;;;;;20.34;100.00;101372.81;5094815;28;20051;-87
2021/05/22 08:15:16;;;;;;;27.48;26.08;;;;;;;20.60;100.00;101370.38;5094576;28;20048;-87
2021/05/22 08:17:43;;;;;;;25.92;24.52;;;;;;;20.51;100.00;101378.06;5094853;28;20062;-88
2021/05/22 08:20:11;;;;;;;26.90;25.60;;;;;;;20.50;100.00;101383.75;5094619;28;20051;-87
2021/05/22 08:22:38;;;;;;;30.17;28.77;;;;;;;20.51;100.00;101379.97;5094424;28;20048;-88
2021/05/22 08:25:06;;;;;;;29.45;27.95;;;;;;;20.49;100.00;101387.53;5094384;28;20095;-89
2021/05/22 08:27:32;;;;;;;29.52;28.13;;;;;;;20.21;100.00;101380.47;5094586;28;20444;-88
2021/05/22 08:29:59;;;;;;;30.70;29.30;;;;;;;20.33;100.00;101381.16;5094350;28;20059;-88
2021/05/22 08:32:26;;;;;;;32.22;30.73;;;;;;;20.48;100.00;101378.59;5094462;28;20083;-87
2021/05/22 08:34:54;;;;;;;30.63;29.23;;;;;;;20.44;100.00;101374.78;5094231;28;20051;-88
2021/05/22 08:37:21;;;;;;;27.75;26.50;;;;;;;20.44;100.00;101387.47;5094440;28;20048;-88
2021/05/22 08:39:47;;;;;;;31.08;29.58;;;;;;;20.51;100.00;101377.28;5093993;28;20485;-88
2021/05/22 08:42:16;;;;;;;28.17;26.67;;;;;;;20.78;100.00;101382.66;5094375;28;20137;-88
2021/05/22 08:44:43;;;;;;;27.10;25.80;;;;;;;20.88;100.00;101373.81;5094159;28;20508;-87
2021/05/22 08:47:10;;;;;;;27.65;26.15;;;;;;;20.40;100.00;101378.25;5093944;28;20051;-89
2021/05/22 08:49:41;;;;;;;28.38;26.67;;;;;;;20.71;100.00;101374.78;5094306;28;20051;-87
2021/05/22 08:52:11;;;;;;;26.60;25.20;;;;;;;20.89;100.00;101367.38;5094074;28;20079;-89
2021/05/22 08:54:37;;;;;;;24.70;23.40;;;;;;;20.80;100.00;101370.53;5093882;28;20044;-87
2021/05/22 08:57:04;;;;;;;24.92;23.63;;;;;;;20.90;100.00;101360.88;5094000;28;20048;-88
2021/05/22 08:59:30;;;;;;;27.70;26.30;;;;;;;20.92;100.00;101361.44;5093923;28;20452;-88
2021/05/22 09:01:57;;;;;;;25.80;24.40;;;;;;;20.83;100.00;101368.41;5093622;28;20048;-89
2021/05/22 09:04:23;;;;;;;27.63;26.00;;;;;;;21.26;100.00;101356.53;5092246;28;20048;-87
2021/05/22 09:07:01;;;;;;;26.80;25.40;;;;;;;20.45;100.00;101351.31;5092092;28;20063;-90
2021/05/22 09:09:42;;;;;;;28.30;26.58;;;;;;;21.32;100.00;101350.06;5093641;28;20059;-88
2021/05/22 09:12:10;;;;;;;28.60;27.10;;;;;;;20.98;100.00;101344.22;5093581;28;20055;-88
2021/05/22 09:14:44;;;;;;;30.08;27.92;;;;;;;21.32;100.00;101347.38;5093532;28;20052;-87
2021/05/22 09:17:12;;;;;;;26.35;24.85;;;;;;;21.24;100.00;101335.19;5094343;28;20060;-88
2021/05/22 09:19:39;;;;;;;25.77;24.48;;;;;;;20.57;100.00;101344.72;5093521;28;20059;-88
2021/05/22 09:22:13;;;;;;;26.38;24.95;;;;;;;21.47;100.00;101343.97;5093929;28;20051;-88
2021/05/22 09:27:36;;;;;;;26.42;24.92;;;;;;;21.30;100.00;101337.91;5091602;27;20352;-80
2021/05/22 09:30:10;;;;;;;28.10;26.60;;;;;;;21.56;100.00;101330.75;5090877;28;20052;-78
2021/05/22 09:32:37;;;;;;;31.85;30.25;;;;;;;22.13;100.00;101337.94;5091064;28;20052;-78
2021/05/22 09:35:05;;;;;;;28.02;26.42;;;;;;;20.03;100.00;101333.09;5091694;28;20059;-77
2021/05/22 09:37:39;;;;;;;29.67;27.98;;;;;;;20.77;100.00;101341.38;5090767;28;20488;-77
2021/05/22 09:40:06;;;;;;;30.83;29.33;;;;;;;21.78;100.00;101328.66;5090565;28;20484;-78
2021/05/22 09:42:33;;;;;;;28.30;26.77;;;;;;;21.90;100.00;101329.22;5090908;28;20044;-80
2021/05/22 09:45:01;;;;;;;26.67;25.08;;;;;;;22.22;100.00;101330.16;5090938;28;20052;-81
2021/05/22 09:47:27;;;;;;;26.60;25.20;;;;;;;21.91;100.00;101330.06;5090842;28;20079;-80
2021/05/22 09:49:54;;;;;;;27.00;25.45;;;;;;;22.16;100.00;101340.13;5090724;28;20048;-80
2021/05/22 09:52:22;;;;;;;27.70;26.20;;;;;;;21.46;100.00;101339.66;5090917;28;20056;-80
2021/05/22 09:54:49;;;;;;;28.42;26.92;;;;;;;22.03;100.00;101327.94;5090437;28;20492;-78
2021/05/22 09:57:17;;;;;;;28.20;26.80;;;;;;;22.46;100.00;101316.91;5090428;28;20059;-78
2021/05/22 10:00:11;;;;;;;29.40;28.00;;;;;;;22.64;100.00;101321.78;5090884;28;20134;-79
2021/05/22 10:02:42;;;;;;;30.30;29.00;;;;;;;22.82;100.00;101323.91;5090484;28;20052;-77
2021/05/22 10:05:17;;;;;;;29.42;28.02;;;;;;;22.75;100.00;101319.84;5089992;28;20055;-77
2021/05/22 10:07:45;;;;;;;27.98;26.67;;;;;;;22.75;100.00;101314.44;5090112;28;20052;-80
2021/05/22 10:10:12;;;;;;;27.23;25.92;;;;;;;22.82;100.00;101304.16;5090740;28;20077;-78
2021/05/22 10:12:40;;;;;;;26.70;25.40;;;;;;;23.11;100.00;101303.56;5090395;28;20059;-79
2021/05/22 10:15:09;;;;;;;27.05;25.75;;;;;;;23.02;98.22;101295.19;5090928;28;20086;-77
2021/05/22 10:17:36;;;;;;;26.15;24.95;;;;;;;22.15;100.00;101303.34;5089071;28;20055;-78
2021/05/22 10:20:05;;;;;;;27.52;26.33;;;;;;;23.18;100.00;101290.50;5089743;28;20044;-78
2021/05/22 10:22:32;;;;;;;25.90;24.52;;;;;;;22.93;100.00;101286.78;5089512;28;20539;-82
2021/05/22 10:24:58;;;;;;;25.88;24.50;;;;;;;23.13;100.00;101287.84;5089439;28;20051;-85
2021/05/22 10:27:24;;;;;;;24.17;23.08;;;;;;;22.95;95.66;101276.50;5089071;28;20048;-80
2021/05/22 10:29:51;;;;;;;28.58;27.27;;;;;;;22.50;86.70;101275.47;5089296;28;20052;-81
2021/05/22 10:32:22;;;;;;;28.90;27.30;;;;;;;23.90;86.37;101277.44;5089342;28;20052;-80
2021/05/22 10:34:49;;;;;;;26.25;25.05;;;;;;;24.11;86.55;101278.09;5089468;28;20121;-79
2021/05/22 10:37:39;;;;;;;28.08;26.77;;;;;;;23.85;86.67;101270.16;5084734;28;20101;-78
2021/05/22 10:40:07;;;;;;;27.95;26.65;;;;;;;23.69;78.47;101269.47;5075820;28;20090;-77
2021/05/22 10:42:48;;;;;;;27.63;26.23;;;;;;;23.49;100.00;101266.81;5075393;28;20052;-80
2021/05/22 10:45:31;;;;;;;25.92;24.40;;;;;;;24.09;94.91;101264.84;5076358;28;20052;-78
2021/05/22 10:48:01;;;;;;;26.13;24.83;;;;;;;24.20;91.47;101268.25;5075985;28;20049;-80
2021/05/22 10:50:41;;;;;;;24.23;22.80;;;;;;;24.31;91.64;101258.16;5075875;28;20400;-78
2021/05/22 10:53:30;;;;;;;24.08;22.88;;;;;;;23.99;94.21;101256.75;5076159;28;20052;-77
2021/05/22 10:56:05;;;;;;;27.50;26.20;;;;;;;23.83;100.00;101245.22;5071880;28;20106;-78
2021/05/22 10:58:31;;;;;;;29.27;27.77;;;;;;;23.68;100.00;101242.56;5075845;28;20044;-78
2021/05/22 11:01:34;;;;;;;29.30;27.90;;;;;;;24.09;95.85;101248.56;5075699;28;20450;-84
2021/05/22 11:04:31;;;;;;;29.45;28.05;;;;;;;23.57;100.00;101246.44;5075911;28;20064;-77
2021/05/22 11:07:00;;;;;;;26.67;25.38;;;;;;;24.37;100.00;101243.44;5075593;28;20483;-81
2021/05/22 11:09:51;;;;;;;26.80;25.50;;;;;;;24.63;97.21;101231.25;5075781;28;20041;-82
2021/05/22 11:12:43;;;;;;;28.50;27.20;;;;;;;24.91;98.56;101226.88;5075776;28;20052;-81